Stations météo

réclame
Mon MeteoGroup
Isola Stromboli, Italie (16416): Température de l'air & dewpoint: 16.10.2020 05:00:00 - 22.10.2020 05:00:00 (CEST)Isola Stromboli, Italie (16416): Vitesse du vent: 16.10.2020 05:00:00 - 22.10.2020 05:00:00 (CEST)Isola Stromboli, Italie (16416): Direction du vent: 16.10.2020 05:00:00 - 22.10.2020 05:00:00 (CEST)Isola Stromboli, Italie (16416): reduced air pressure: 16.10.2020 05:00:00 - 22.10.2020 05:00:00 (CEST)Isola Stromboli, Italie (16416): Quantités de précipitations: 16.10.2020 05:00:00 - 22.10.2020 05:00:00 (CEST)
Date & Time tt [°C] td [°C] ff [km/h] ff [knt] dd ppp [hPa] rr [mm]
22.10.2020 05:00:00 16,5 10,7 4 2 S 1024,4 -
22.10.2020 04:00:00 16,6 10,6 4 2 S 1024,5 -
22.10.2020 03:00:00 16,5 10,5 4 2 S 1024,7 -
22.10.2020 02:00:00 16,6 10,4 5 3 S 1024,7 0,0
22.10.2020 01:00:00 16,7 10,7 8 4 S 1024,6 -
22.10.2020 00:00:00 17,0 10,1 8 4 S 1024,5 -
21.10.2020 23:00:00 16,9 10,2 8 4 S 1024,5 -
21.10.2020 22:00:00 17,0 9,8 4 2 S 1024,5 -
21.10.2020 21:00:00 17,3 10,1 4 2 S 1024,5 -
21.10.2020 20:00:00 17,5 11,5 2 1 S 1024,3 0,0
21.10.2020 19:00:00 17,0 12,3 4 2 S 1023,9 -
21.10.2020 18:00:00 17,3 12,8 4 2 S 1023,7 -
21.10.2020 17:00:00 18,0 12,8 0 0 N 1023,8 -
21.10.2020 16:00:00 19,8 13,6 2 1 S 1023,9 -
21.10.2020 15:00:00 19,5 13,3 4 2 S 1024,1 -
21.10.2020 14:00:00 19,9 14,4 8 4 S 1024,6 0,0
21.10.2020 13:00:00 20,0 14,7 9 5 S 1025,2 -
21.10.2020 12:00:00 20,8 15,3 13 7 S 1025,3 -
21.10.2020 11:00:00 20,3 14,8 11 6 S 1025,1 -
21.10.2020 10:00:00 20,0 14,9 11 6 S 1025,0 -
21.10.2020 09:00:00 19,2 15,8 11 6 S 1024,5 -
21.10.2020 08:00:00 17,4 15,0 8 4 S 1024,3 0,0
21.10.2020 07:00:00 16,5 13,9 5 3 S 1024,0 -
21.10.2020 06:00:00 16,3 13,7 5 3 S 1023,8 -
21.10.2020 05:00:00 16,2 13,4 8 4 S 1023,6 -
21.10.2020 04:00:00 16,1 12,4 8 4 S 1023,7 -
21.10.2020 03:00:00 16,6 13,4 8 4 S 1024,1 -
21.10.2020 02:00:00 16,7 13,0 5 3 S 1024,4 0,0
21.10.2020 01:00:00 16,9 12,6 4 2 S 1025,0 -
21.10.2020 00:00:00 17,6 13,0 2 1 S 1025,2 -
20.10.2020 23:00:00 17,4 13,0 2 1 S 1025,2 -
20.10.2020 22:00:00 16,9 12,4 4 2 S 1025,0 -
20.10.2020 21:00:00 16,3 11,6 4 2 S 1024,6 -
20.10.2020 20:00:00 16,7 12,4 5 3 S 1024,5 0,0
20.10.2020 19:00:00 16,3 12,0 5 3 S 1023,9 -
20.10.2020 18:00:00 16,9 12,2 4 2 S 1023,7 -
20.10.2020 17:00:00 17,5 12,4 2 1 S 1024,1 -
20.10.2020 16:00:00 17,8 12,4 2 1 S 1024,4 -
20.10.2020 15:00:00 19,6 12,8 4 2 S 1024,5 -
20.10.2020 14:00:00 19,6 14,3 5 3 S 1025,0 0,0
20.10.2020 13:00:00 18,6 13,6 8 4 S 1025,4 -
20.10.2020 12:00:00 19,4 12,6 4 2 S 1025,2 -
20.10.2020 11:00:00 19,6 12,8 5 3 S 1024,9 -
20.10.2020 10:00:00 20,4 14,9 5 3 S 1024,7 -
20.10.2020 09:00:00 18,4 12,8 9 5 S 1024,3 -
20.10.2020 08:00:00 17,4 12,7 9 5 S 1023,9 0,0
20.10.2020 07:00:00 15,9 12,2 8 4 S 1023,6 -
20.10.2020 06:00:00 15,7 11,6 8 4 S 1023,8 -
20.10.2020 05:00:00 16,7 12,0 4 2 S 1023,5 -
20.10.2020 04:00:00 16,5 11,8 5 3 S 1023,5 -
20.10.2020 03:00:00 16,3 11,8 5 3 S 1024,1 -
20.10.2020 02:00:00 16,4 11,7 8 4 S 1024,1 0,0
20.10.2020 01:00:00 15,8 10,7 8 4 S 1023,9 -
20.10.2020 00:00:00 16,0 10,7 5 3 S 1024,1 -
19.10.2020 23:00:00 16,1 11,8 5 3 S 1023,9 -
19.10.2020 22:00:00 16,2 11,9 9 5 S 1023,8 -
19.10.2020 21:00:00 16,5 12,0 5 3 S 1023,4 -
19.10.2020 20:00:00 15,9 11,8 8 4 S 1023,4 0,0
19.10.2020 19:00:00 16,7 12,2 8 4 S 1023,1 -
19.10.2020 18:00:00 17,2 12,7 8 4 S 1022,9 -
19.10.2020 17:00:00 17,3 12,6 11 6 S 1022,7 -
19.10.2020 16:00:00 18,2 14,6 2 1 S 1022,4 -
19.10.2020 15:00:00 17,8 14,4 9 5 S 1022,7 -
19.10.2020 14:00:00 17,4 14,6 11 6 S 1023,1 0,0
19.10.2020 13:00:00 17,1 14,1 9 5 S 1023,2 -
19.10.2020 12:00:00 18,0 14,4 9 5 S 1023,4 -
19.10.2020 11:00:00 18,4 13,2 5 3 S 1023,1 -
19.10.2020 10:00:00 18,3 13,7 8 4 S 1022,7 -
19.10.2020 09:00:00 18,3 13,5 5 3 S 1022,0 -
19.10.2020 08:00:00 17,4 13,0 9 5 S 1021,4 0,0
19.10.2020 07:00:00 17,4 13,4 8 4 S 1021,1 -
19.10.2020 06:00:00 17,1 12,8 9 5 S 1021,0 -
19.10.2020 05:00:00 16,6 12,7 5 3 S 1021,0 -
19.10.2020 04:00:00 17,1 13,3 5 3 S 1021,4 -
19.10.2020 03:00:00 17,2 12,1 5 3 S 1021,3 -
19.10.2020 02:00:00 17,4 12,0 8 4 S 1021,4 0,0
19.10.2020 01:00:00 17,9 12,3 5 3 S 1021,5 -
19.10.2020 00:00:00 17,8 12,0 8 4 S 1021,4 -
18.10.2020 23:00:00 17,6 12,2 8 4 S 1021,1 -
18.10.2020 22:00:00 17,6 11,6 9 5 S 1020,7 -
18.10.2020 21:00:00 17,6 11,8 9 5 S 1020,4 -
18.10.2020 20:00:00 17,4 11,4 13 7 S 1020,1 0,0
18.10.2020 19:00:00 17,4 11,8 15 8 S 1019,6 -
18.10.2020 18:00:00 17,7 12,1 11 6 S 1019,2 -
18.10.2020 17:00:00 18,2 11,5 11 6 S 1019,1 -
18.10.2020 16:00:00 18,5 12,2 13 7 S 1019,1 -
18.10.2020 15:00:00 19,2 11,9 15 8 S 1019,2 -
18.10.2020 14:00:00 18,9 12,4 15 8 S 1019,2 0,0
18.10.2020 13:00:00 19,2 11,9 16 9 S 1019,5 -
18.10.2020 12:00:00 19,3 12,5 18 10 S 1019,4 -
18.10.2020 11:00:00 18,9 13,0 18 10 S 1019,1 -
18.10.2020 10:00:00 18,2 12,8 15 8 S 1018,9 -
18.10.2020 09:00:00 17,7 12,8 18 10 S 1018,4 -
18.10.2020 08:00:00 17,1 13,0 16 9 S 1017,5 0,0
18.10.2020 07:00:00 17,7 12,8 11 6 S 1017,4 -
18.10.2020 06:00:00 17,9 13,7 15 8 S 1017,4 -
18.10.2020 05:00:00 18,0 12,6 21 11 S 1017,3 -
18.10.2020 04:00:00 17,8 12,2 18 10 S 1017,4 -
18.10.2020 03:00:00 17,8 12,4 15 8 S 1017,7 -
18.10.2020 02:00:00 17,1 12,2 9 5 S 1017,7 0,0
18.10.2020 01:00:00 17,5 12,1 9 5 S 1017,8 -
18.10.2020 00:00:00 17,4 12,5 9 5 S 1017,7 -
17.10.2020 23:00:00 17,5 13,3 13 7 S 1017,8 -
17.10.2020 22:00:00 17,7 13,9 24 13 S 1017,5 -
17.10.2020 21:00:00 17,8 11,5 5 3 S 1017,4 -
17.10.2020 20:00:00 18,0 11,7 4 2 S 1016,9 0,0
17.10.2020 19:00:00 18,1 11,8 13 7 S 1016,4 -
17.10.2020 18:00:00 18,5 11,3 15 8 S 1016,2 -
17.10.2020 17:00:00 18,8 11,1 11 6 S 1016,1 -
17.10.2020 16:00:00 19,0 11,3 18 10 S 1016,1 -
17.10.2020 15:00:00 18,8 11,6 21 11 S 1016,1 -
17.10.2020 14:00:00 18,9 11,9 22 12 S 1016,0 0,0
17.10.2020 13:00:00 19,2 11,7 21 11 S 1016,2 -
17.10.2020 12:00:00 19,4 11,9 21 11 S 1016,1 -
17.10.2020 11:00:00 19,7 11,7 13 7 S 1015,6 -
17.10.2020 10:00:00 19,1 11,4 13 7 S 1015,5 -
17.10.2020 09:00:00 18,6 11,6 8 4 S 1015,3 -
17.10.2020 08:00:00 16,9 10,2 5 3 S 1014,8 0,0
17.10.2020 07:00:00 17,1 9,7 5 3 S 1014,8 -
17.10.2020 06:00:00 17,4 11,6 11 6 S 1014,8 -
17.10.2020 05:00:00 17,4 10,2 8 4 S 1014,9 -
17.10.2020 04:00:00 17,4 10,7 5 3 S 1014,8 -
17.10.2020 03:00:00 17,7 10,5 9 5 S 1015,2 -
17.10.2020 02:00:00 17,3 10,4 9 5 S 1015,3 0,0
17.10.2020 01:00:00 17,6 11,8 11 6 S 1015,2 -
17.10.2020 00:00:00 17,6 12,2 11 6 S 1015,2 -
16.10.2020 23:00:00 17,6 12,2 13 7 S 1015,6 -
16.10.2020 22:00:00 17,7 10,8 15 8 S 1015,6 -
16.10.2020 21:00:00 17,9 11,9 11 6 S 1015,3 -
16.10.2020 20:00:00 18,3 10,6 16 9 S 1014,9 0,0
16.10.2020 19:00:00 18,4 11,2 18 10 S 1014,6 -
16.10.2020 18:00:00 18,5 11,0 16 9 S 1014,2 -
16.10.2020 17:00:00 18,7 11,7 16 9 S 1014,1 -
16.10.2020 16:00:00 18,9 12,4 21 11 S 1013,6 -
16.10.2020 15:00:00 19,3 11,5 18 10 S 1013,7 -
16.10.2020 14:00:00 19,3 12,0 16 9 S 1014,3 0,0
16.10.2020 13:00:00 19,5 11,7 15 8 S 1014,5 -
16.10.2020 12:00:00 19,8 11,5 13 7 S 1014,4 -
16.10.2020 11:00:00 20,1 12,3 8 4 S 1014,4 -
16.10.2020 10:00:00 19,9 11,6 8 4 S 1014,2 -
16.10.2020 09:00:00 19,4 11,1 2 1 S 1014,0 -
16.10.2020 08:00:00 18,0 10,6 4 2 S 1013,6 0,0
16.10.2020 07:00:00 17,8 10,4 5 3 S 1013,2 -
16.10.2020 06:00:00 17,8 11,3 9 5 S 1013,1 -
16.10.2020 05:00:00 17,2 10,3 8 4 S 1013,1 -

tt = Température de l'air
td = dewpoint
ff = Vitesse du vent
dd = Direction du vent
ppp = reduced air pressure
rr = Quantités de précipitations

stations d'obs. à proximité